sensor_id;sensor_type;location;lat;lon;timestamp;pressure;altitude;pressure_sealevel;temperature;humidity
73455;BME280;61690;51.824;6.306;2023-03-01T00:01:36;103030.84;;;16.92;40.86
73455;BME280;61690;51.824;6.306;2023-03-01T00:04:02;103027.28;;;16.95;40.70
73455;BME280;61690;51.824;6.306;2023-03-01T00:06:27;103020.41;;;16.89;40.86
73455;BME280;61690;51.824;6.306;2023-03-01T00:08:53;103022.94;;;16.94;40.31
73455;BME280;61690;51.824;6.306;2023-03-01T00:11:24;103028.25;;;16.91;40.49
73455;BME280;61690;51.824;6.306;2023-03-01T00:13:52;103024.81;;;16.89;40.69
73455;BME280;61690;51.824;6.306;2023-03-01T00:16:20;103023.97;;;16.87;40.80
73455;BME280;61690;51.824;6.306;2023-03-01T00:18:46;103028.44;;;16.83;40.96
73455;BME280;61690;51.824;6.306;2023-03-01T00:21:11;103018.78;;;16.83;40.82
73455;BME280;61690;51.824;6.306;2023-03-01T00:23:37;103015.28;;;16.84;40.56
73455;BME280;61690;51.824;6.306;2023-03-01T00:26:07;103014.44;;;16.82;40.72
73455;BME280;61690;51.824;6.306;2023-03-01T00:28:32;103013.53;;;16.83;40.48
73455;BME280;61690;51.824;6.306;2023-03-01T00:31:06;103007.41;;;16.81;40.44
73455;BME280;61690;51.824;6.306;2023-03-01T00:33:32;103005.78;;;16.77;40.92
73455;BME280;61690;51.824;6.306;2023-03-01T00:36:00;103004.13;;;16.73;40.74
73455;BME280;61690;51.824;6.306;2023-03-01T00:38:26;102997.88;;;16.77;40.67
73455;BME280;61690;51.824;6.306;2023-03-01T00:40:51;103001.38;;;16.78;40.54
73455;BME280;61690;51.824;6.306;2023-03-01T00:43:18;102999.78;;;16.72;40.65
73455;BME280;61690;51.824;6.306;2023-03-01T00:45:44;103000.69;;;16.70;40.87
73455;BME280;61690;51.824;6.306;2023-03-01T00:48:10;102997.28;;;16.66;40.86
73455;BME280;61690;51.824;6.306;2023-03-01T00:50:35;102992.81;;;16.70;40.81
73455;BME280;61690;51.824;6.306;2023-03-01T00:53:00;102991.91;;;16.72;40.78
73455;BME280;61690;51.824;6.306;2023-03-01T00:55:26;102992.13;;;16.63;40.69
73455;BME280;61690;51.824;6.306;2023-03-01T00:57:51;102982.34;;;16.68;40.80
73455;BME280;61690;51.824;6.306;2023-03-01T01:00:17;102978.06;;;16.64;40.80
73455;BME280;61690;51.824;6.306;2023-03-01T01:02:43;102982.47;;;16.63;40.75
73455;BME280;61690;51.824;6.306;2023-03-01T01:05:08;102981.69;;;16.58;40.64
73455;BME280;61690;51.824;6.306;2023-03-01T01:07:34;102980.72;;;16.62;40.60
73455;BME280;61690;51.824;6.306;2023-03-01T01:09:59;102982.50;;;16.60;40.51
73455;BME280;61690;51.824;6.306;2023-03-01T01:12:25;102977.31;;;16.59;40.77
73455;BME280;61690;51.824;6.306;2023-03-01T01:14:50;102974.75;;;16.56;40.81
73455;BME280;61690;51.824;6.306;2023-03-01T01:17:15;102967.75;;;16.55;40.79
73455;BME280;61690;51.824;6.306;2023-03-01T01:19:40;102967.69;;;16.58;40.74
73455;BME280;61690;51.824;6.306;2023-03-01T01:22:06;102959.03;;;16.54;40.63
73455;BME280;61690;51.824;6.306;2023-03-01T01:24:31;102967.06;;;16.48;40.99
73455;BME280;61690;51.824;6.306;2023-03-01T01:26:56;102960.06;;;16.47;40.94
73455;BME280;61690;51.824;6.306;2023-03-01T01:29:22;102949.44;;;16.53;40.42
73455;BME280;61690;51.824;6.306;2023-03-01T01:31:47;102945.19;;;16.48;40.91
73455;BME280;61690;51.824;6.306;2023-03-01T01:34:15;102945.25;;;16.44;40.92
73455;BME280;61690;51.824;6.306;2023-03-01T01:36:42;102939.94;;;16.48;40.47
73455;BME280;61690;51.824;6.306;2023-03-01T01:39:07;102938.28;;;16.43;40.80
73455;BME280;61690;51.824;6.306;2023-03-01T01:41:33;102938.22;;;16.45;40.84
73455;BME280;61690;51.824;6.306;2023-03-01T01:44:15;102943.53;;;16.43;40.57
73455;BME280;61690;51.824;6.306;2023-03-01T01:49:24;102944.38;;;16.44;40.45
73455;BME280;61690;51.824;6.306;2023-03-01T01:51:55;102945.25;;;16.44;40.65
73455;BME280;61690;51.824;6.306;2023-03-01T01:54:29;102949.72;;;16.39;40.83
73455;BME280;61690;51.824;6.306;2023-03-01T01:57:00;102943.75;;;16.34;41.01
73455;BME280;61690;51.824;6.306;2023-03-01T01:59:28;102949.00;;;16.34;40.86
73455;BME280;61690;51.824;6.306;2023-03-01T02:01:57;102952.47;;;16.35;40.84
73455;BME280;61690;51.824;6.306;2023-03-01T02:04:24;102948.03;;;16.38;40.63
73455;BME280;61690;51.824;6.306;2023-03-01T02:07:04;102948.09;;;16.34;40.78
73455;BME280;61690;51.824;6.306;2023-03-01T02:09:30;102947.38;;;16.29;40.74
73455;BME280;61690;51.824;6.306;2023-03-01T02:11:57;102943.81;;;16.31;40.83
73455;BME280;61690;51.824;6.306;2023-03-01T02:14:22;102944.78;;;16.27;40.62
73455;BME280;61690;51.824;6.306;2023-03-01T02:16:47;102942.81;;;16.35;40.54
73455;BME280;61690;51.824;6.306;2023-03-01T02:22:28;102930.84;;;16.23;40.78
73455;BME280;61690;51.824;6.306;2023-03-01T02:30:19;102926.44;;;16.24;40.61
73455;BME280;61690;51.824;6.306;2023-03-01T02:32:46;102924.81;;;16.20;40.81
73455;BME280;61690;51.824;6.306;2023-03-01T02:35:14;102923.09;;;16.19;41.00
73455;BME280;61690;51.824;6.306;2023-03-01T02:37:41;102916.97;;;16.18;40.99
73455;BME280;61690;51.824;6.306;2023-03-01T02:40:10;102930.94;;;16.20;40.80
73455;BME280;61690;51.824;6.306;2023-03-01T02:42:46;102924.78;;;16.21;40.60
73455;BME280;61690;51.824;6.306;2023-03-01T02:45:12;102932.78;;;16.17;40.86
73455;BME280;61690;51.824;6.306;2023-03-01T02:47:38;102928.47;;;16.13;40.76
73455;BME280;61690;51.824;6.306;2023-03-01T02:50:13;102918.84;;;16.13;40.69
73455;BME280;61690;51.824;6.306;2023-03-01T02:52:53;102925.91;;;16.11;40.94
73455;BME280;61690;51.824;6.306;2023-03-01T02:55:21;102920.66;;;16.11;40.84
73455;BME280;61690;51.824;6.306;2023-03-01T02:57:48;102912.84;;;16.06;40.75
73455;BME280;61690;51.824;6.306;2023-03-01T03:00:37;102920.66;;;16.10;40.62
73455;BME280;61690;51.824;6.306;2023-03-01T03:03:05;102921.31;;;16.19;40.76
73455;BME280;61690;51.824;6.306;2023-03-01T03:05:31;102925.41;;;16.33;40.21
73455;BME280;61690;51.824;6.306;2023-03-01T03:07:59;102921.84;;;16.34;40.15
73455;BME280;61690;51.824;6.306;2023-03-01T03:10:27;102913.84;;;16.40;40.38
73455;BME280;61690;51.824;6.306;2023-03-01T03:13:02;102915.53;;;16.42;39.98
73455;BME280;61690;51.824;6.306;2023-03-01T03:15:28;102916.34;;;16.44;39.94
73455;BME280;61690;51.824;6.306;2023-03-01T03:17:54;102918.00;;;16.49;40.18
73455;BME280;61690;51.824;6.306;2023-03-01T03:20:23;102916.06;;;16.57;39.61
73455;BME280;61690;51.824;6.306;2023-03-01T03:22:52;102921.22;;;16.60;39.85
73455;BME280;61690;51.824;6.306;2023-03-01T03:25:18;102916.06;;;16.57;39.68
73455;BME280;61690;51.824;6.306;2023-03-01T03:27:45;102919.56;;;16.57;39.80
73455;BME280;61690;51.824;6.306;2023-03-01T03:30:14;102910.75;;;16.58;39.73
73455;BME280;61690;51.824;6.306;2023-03-01T03:32:40;102911.66;;;16.57;39.95
73455;BME280;61690;51.824;6.306;2023-03-01T03:35:07;102908.06;;;16.61;39.69
73455;BME280;61690;51.824;6.306;2023-03-01T03:37:37;102906.31;;;16.60;39.60
73455;BME280;61690;51.824;6.306;2023-03-01T03:40:21;102908.09;;;16.60;39.66
73455;BME280;61690;51.824;6.306;2023-03-01T03:42:47;102915.09;;;16.61;39.51
73455;BME280;61690;51.824;6.306;2023-03-01T03:45:13;102912.38;;;16.64;39.60
73455;BME280;61690;51.824;6.306;2023-03-01T03:47:38;102912.38;;;16.64;39.52
73455;BME280;61690;51.824;6.306;2023-03-01T03:50:04;102908.81;;;16.66;39.50
73455;BME280;61690;51.824;6.306;2023-03-01T03:52:29;102905.31;;;16.66;39.61
73455;BME280;61690;51.824;6.306;2023-03-01T03:54:54;102900.88;;;16.68;39.76
73455;BME280;61690;51.824;6.306;2023-03-01T03:57:19;102895.50;;;16.73;39.11
73455;BME280;61690;51.824;6.306;2023-03-01T03:59:46;102895.25;;;16.83;39.39
73455;BME280;61690;51.824;6.306;2023-03-01T04:02:13;102895.91;;;16.93;39.19
73455;BME280;61690;51.824;6.306;2023-03-01T04:04:50;102893.94;;;17.01;38.93
73455;BME280;61690;51.824;6.306;2023-03-01T04:07:16;102885.81;;;17.09;38.96
73455;BME280;61690;51.824;6.306;2023-03-01T04:09:42;102891.72;;;17.17;39.00
73455;BME280;61690;51.824;6.306;2023-03-01T04:12:08;102890.66;;;17.24;38.67
73455;BME280;61690;51.824;6.306;2023-03-01T04:14:34;102880.88;;;17.30;38.45
73455;BME280;61690;51.824;6.306;2023-03-01T04:16:59;102884.22;;;17.35;38.50
73455;BME280;61690;51.824;6.306;2023-03-01T04:19:24;102884.19;;;17.36;38.81
73455;BME280;61690;51.824;6.306;2023-03-01T04:21:49;102881.41;;;17.41;38.60
73455;BME280;61690;51.824;6.306;2023-03-01T04:24:15;102880.47;;;17.43;38.33
73455;BME280;61690;51.824;6.306;2023-03-01T04:26:40;102876.81;;;17.49;38.27
73455;BME280;61690;51.824;6.306;2023-03-01T04:29:05;102864.34;;;17.54;38.29
73455;BME280;61690;51.824;6.306;2023-03-01T04:31:30;102873.06;;;17.56;38.36
73455;BME280;61690;51.824;6.306;2023-03-01T04:33:56;102880.00;;;17.60;38.44
73455;BME280;61690;51.824;6.306;2023-03-01T04:36:24;102872.75;;;17.67;38.56
73455;BME280;61690;51.824;6.306;2023-03-01T04:38:50;102876.22;;;17.69;38.17
73455;BME280;61690;51.824;6.306;2023-03-01T04:41:19;102875.19;;;17.73;38.05
73455;BME280;61690;51.824;6.306;2023-03-01T04:43:45;102876.78;;;17.79;38.06
73455;BME280;61690;51.824;6.306;2023-03-01T04:46:12;102869.66;;;17.82;37.96
73455;BME280;61690;51.824;6.306;2023-03-01T04:48:39;102860.88;;;17.83;38.00
73455;BME280;61690;51.824;6.306;2023-03-01T04:51:06;102865.19;;;17.86;38.00
73455;BME280;61690;51.824;6.306;2023-03-01T04:53:32;102860.66;;;17.91;38.11
73455;BME280;61690;51.824;6.306;2023-03-01T04:55:58;102863.13;;;17.96;37.94
73455;BME280;61690;51.824;6.306;2023-03-01T04:58:27;102861.34;;;17.96;37.89
73455;BME280;61690;51.824;6.306;2023-03-01T05:00:54;102855.25;;;17.96;37.65
73455;BME280;61690;51.824;6.306;2023-03-01T05:03:19;102851.75;;;17.95;38.12
73455;BME280;61690;51.824;6.306;2023-03-01T05:05:46;102842.13;;;17.94;38.05
73455;BME280;61690;51.824;6.306;2023-03-01T05:08:13;102839.59;;;17.91;38.04
73455;BME280;61690;51.824;6.306;2023-03-01T05:10:43;102830.03;;;17.87;38.01
73455;BME280;61690;51.824;6.306;2023-03-01T05:13:09;102825.66;;;17.88;38.12
73455;BME280;61690;51.824;6.306;2023-03-01T05:15:34;102828.31;;;17.88;38.37
73455;BME280;61690;51.824;6.306;2023-03-01T05:18:01;102823.03;;;17.88;37.99
73455;BME280;61690;51.824;6.306;2023-03-01T05:20:28;102824.75;;;17.89;38.01
73455;BME280;61690;51.824;6.306;2023-03-01T05:22:56;102829.81;;;17.95;37.79
73455;BME280;61690;51.824;6.306;2023-03-01T05:25:22;102829.59;;;18.02;37.76
73455;BME280;61690;51.824;6.306;2023-03-01T05:27:47;102832.34;;;14.28;30.04
73455;BME280;61690;51.824;6.306;2023-03-01T05:30:13;102832.94;;;14.97;34.47
73455;BME280;61690;51.824;6.306;2023-03-01T05:32:41;102823.25;;;16.89;32.80
73455;BME280;61690;51.824;6.306;2023-03-01T05:35:06;102809.97;;;17.83;31.47
73455;BME280;61690;51.824;6.306;2023-03-01T05:37:32;102816.75;;;18.45;32.28
73455;BME280;61690;51.824;6.306;2023-03-01T05:39:57;102815.94;;;18.68;32.82
73455;BME280;61690;51.824;6.306;2023-03-01T05:42:22;102807.41;;;18.87;32.39
73455;BME280;61690;51.824;6.306;2023-03-01T05:44:47;102809.28;;;19.08;32.89
73455;BME280;61690;51.824;6.306;2023-03-01T05:47:13;102810.28;;;19.28;33.51
73455;BME280;61690;51.824;6.306;2023-03-01T05:49:38;102813.94;;;19.47;33.75
73455;BME280;61690;51.824;6.306;2023-03-01T05:52:03;102811.38;;;19.68;33.99
73455;BME280;61690;51.824;6.306;2023-03-01T05:54:28;102803.69;;;19.85;34.17
73455;BME280;61690;51.824;6.306;2023-03-01T05:56:54;102804.84;;;20.00;33.85
73455;BME280;61690;51.824;6.306;2023-03-01T05:59:20;102805.31;;;20.10;33.98
73455;BME280;61690;51.824;6.306;2023-03-01T06:01:46;102806.66;;;20.20;34.39
73455;BME280;61690;51.824;6.306;2023-03-01T06:04:11;102811.66;;;20.26;34.41
73455;BME280;61690;51.824;6.306;2023-03-01T06:06:37;102819.53;;;20.28;34.54
73455;BME280;61690;51.824;6.306;2023-03-01T06:09:03;102821.31;;;20.27;34.78
73455;BME280;61690;51.824;6.306;2023-03-01T06:11:28;102822.69;;;20.36;35.07
73455;BME280;61690;51.824;6.306;2023-03-01T06:13:53;102815.56;;;20.38;35.38
73455;BME280;61690;51.824;6.306;2023-03-01T06:16:19;102821.59;;;20.42;35.14
73455;BME280;61690;51.824;6.306;2023-03-01T06:18:44;102823.31;;;20.43;35.13
73455;BME280;61690;51.824;6.306;2023-03-01T06:21:09;102822.38;;;20.44;35.10
73455;BME280;61690;51.824;6.306;2023-03-01T06:23:35;102823.97;;;20.27;34.82
73455;BME280;61690;51.824;6.306;2023-03-01T06:26:05;102824.59;;;20.32;35.49
73455;BME280;61690;51.824;6.306;2023-03-01T06:28:30;102819.94;;;20.39;35.25
73455;BME280;61690;51.824;6.306;2023-03-01T06:30:55;102821.84;;;20.35;35.34
73455;BME280;61690;51.824;6.306;2023-03-01T06:33:21;102819.31;;;20.32;35.55
73455;BME280;61690;51.824;6.306;2023-03-01T06:35:48;102811.59;;;20.28;35.88
73455;BME280;61690;51.824;6.306;2023-03-01T06:38:13;102805.31;;;20.30;36.07
73455;BME280;61690;51.824;6.306;2023-03-01T06:40:44;102814.38;;;20.45;35.90
73455;BME280;61690;51.824;6.306;2023-03-01T06:43:09;102809.94;;;20.46;36.22
73455;BME280;61690;51.824;6.306;2023-03-01T06:45:34;102807.06;;;20.52;36.15
73455;BME280;61690;51.824;6.306;2023-03-01T06:48:07;102810.34;;;20.57;36.04
73455;BME280;61690;51.824;6.306;2023-03-01T06:50:33;102809.41;;;20.60;36.10
73455;BME280;61690;51.824;6.306;2023-03-01T06:52:58;102805.91;;;20.57;36.33
73455;BME280;61690;51.824;6.306;2023-03-01T06:55:24;102806.66;;;20.61;36.50
73455;BME280;61690;51.824;6.306;2023-03-01T06:57:57;102807.91;;;20.52;36.29
73455;BME280;61690;51.824;6.306;2023-03-01T07:00:23;102803.47;;;20.53;36.61
73455;BME280;61690;51.824;6.306;2023-03-01T07:02:49;102801.06;;;20.48;36.71
73455;BME280;61690;51.824;6.306;2023-03-01T07:05:14;102803.34;;;20.56;36.56
73455;BME280;61690;51.824;6.306;2023-03-01T07:07:40;102803.91;;;20.64;36.53
73455;BME280;61690;51.824;6.306;2023-03-01T07:10:06;102808.06;;;20.70;36.47
73455;BME280;61690;51.824;6.306;2023-03-01T07:12:31;102808.63;;;20.76;36.39
73455;BME280;61690;51.824;6.306;2023-03-01T07:14:56;102809.84;;;20.69;36.28
73455;BME280;61690;51.824;6.306;2023-03-01T07:17:22;102804.56;;;20.69;35.85
73455;BME280;61690;51.824;6.306;2023-03-01T07:19:47;102810.38;;;20.78;36.44
73455;BME280;61690;51.824;6.306;2023-03-01T07:22:12;102815.19;;;20.88;36.44
73455;BME280;61690;51.824;6.306;2023-03-01T07:24:38;102811.25;;;20.97;36.76
73455;BME280;61690;51.824;6.306;2023-03-01T07:27:03;102808.91;;;20.91;36.52
73455;BME280;61690;51.824;6.306;2023-03-01T07:29:28;102817.38;;;20.79;35.97
73455;BME280;61690;51.824;6.306;2023-03-01T07:31:54;102818.88;;;20.84;35.92
73455;BME280;61690;51.824;6.306;2023-03-01T07:34:19;102826.47;;;20.92;35.70
73455;BME280;61690;51.824;6.306;2023-03-01T07:36:44;102825.34;;;20.98;35.68
73455;BME280;61690;51.824;6.306;2023-03-01T07:39:10;102820.47;;;21.07;35.97
73455;BME280;61690;51.824;6.306;2023-03-01T07:41:36;102814.94;;;21.13;35.90
73455;BME280;61690;51.824;6.306;2023-03-01T07:44:01;102820.22;;;21.13;36.17
73455;BME280;61690;51.824;6.306;2023-03-01T07:46:26;102824.44;;;21.18;36.40
73455;BME280;61690;51.824;6.306;2023-03-01T07:48:52;102824.22;;;21.22;36.47
73455;BME280;61690;51.824;6.306;2023-03-01T07:51:17;102824.44;;;21.18;36.42
73455;BME280;61690;51.824;6.306;2023-03-01T07:53:45;102823.66;;;21.15;36.72
73455;BME280;61690;51.824;6.306;2023-03-01T07:56:13;102819.28;;;21.14;36.65
73455;BME280;61690;51.824;6.306;2023-03-01T07:58:40;102816.28;;;21.22;37.14
73455;BME280;61690;51.824;6.306;2023-03-01T08:01:08;102814.34;;;21.26;36.86
73455;BME280;61690;51.824;6.306;2023-03-01T08:03:35;102817.38;;;21.37;36.97
73455;BME280;61690;51.824;6.306;2023-03-01T08:06:02;102817.22;;;21.40;37.07
73455;BME280;61690;51.824;6.306;2023-03-01T08:08:28;102823.31;;;21.42;37.03
73455;BME280;61690;51.824;6.306;2023-03-01T08:10:57;102822.66;;;21.37;37.40
73455;BME280;61690;51.824;6.306;2023-03-01T08:13:22;102814.50;;;21.42;37.38
73455;BME280;61690;51.824;6.306;2023-03-01T08:15:51;102802.66;;;21.50;37.42
73455;BME280;61690;51.824;6.306;2023-03-01T08:18:17;102811.25;;;21.56;37.11
73455;BME280;61690;51.824;6.306;2023-03-01T08:20:42;102808.44;;;21.59;37.37
73455;BME280;61690;51.824;6.306;2023-03-01T08:23:08;102813.53;;;21.63;37.52
73455;BME280;61690;51.824;6.306;2023-03-01T08:25:33;102805.56;;;21.63;37.45
73455;BME280;61690;51.824;6.306;2023-03-01T08:27:59;102808.13;;;21.65;37.67
73455;BME280;61690;51.824;6.306;2023-03-01T08:30:24;102808.84;;;21.68;37.86
73455;BME280;61690;51.824;6.306;2023-03-01T08:32:50;102808.78;;;21.70;37.81
73455;BME280;61690;51.824;6.306;2023-03-01T08:35:16;102808.78;;;21.70;37.83
73455;BME280;61690;51.824;6.306;2023-03-01T08:37:42;102800.53;;;21.76;37.80
73455;BME280;61690;51.824;6.306;2023-03-01T08:40:08;102797.09;;;21.74;38.10
73455;BME280;61690;51.824;6.306;2023-03-01T08:42:37;102807.56;;;21.58;38.42
73455;BME280;61690;51.824;6.306;2023-03-01T08:45:03;102805.56;;;21.25;36.89
73455;BME280;61690;51.824;6.306;2023-03-01T08:47:29;102805.50;;;21.27;38.38
73455;BME280;61690;51.824;6.306;2023-03-01T08:49:54;102806.34;;;21.27;38.30
73455;BME280;61690;51.824;6.306;2023-03-01T08:52:20;102808.28;;;21.24;38.38
73455;BME280;61690;51.824;6.306;2023-03-01T08:54:49;102802.06;;;21.06;38.93
73455;BME280;61690;51.824;6.306;2023-03-01T08:57:14;102800.56;;;21.00;39.50
73455;BME280;61690;51.824;6.306;2023-03-01T08:59:40;102795.72;;;20.89;39.67
73455;BME280;61690;51.824;6.306;2023-03-01T09:02:12;102805.22;;;20.54;39.03
73455;BME280;61690;51.824;6.306;2023-03-01T09:04:38;102805.84;;;20.59;39.79
73455;BME280;61690;51.824;6.306;2023-03-01T09:07:03;102811.47;;;20.51;39.43
73455;BME280;61690;51.824;6.306;2023-03-01T09:09:29;102800.34;;;20.65;39.47
73455;BME280;61690;51.824;6.306;2023-03-01T09:11:54;102799.13;;;20.72;39.55
73455;BME280;61690;51.824;6.306;2023-03-01T09:14:19;102800.25;;;20.67;39.76
73455;BME280;61690;51.824;6.306;2023-03-01T09:16:44;102795.84;;;20.67;39.77
73455;BME280;61690;51.824;6.306;2023-03-01T09:19:13;102786.50;;;20.59;39.98
73455;BME280;61690;51.824;6.306;2023-03-01T09:21:38;102780.91;;;20.66;40.38
73455;BME280;61690;51.824;6.306;2023-03-01T09:24:04;102783.91;;;20.57;40.66
73455;BME280;61690;51.824;6.306;2023-03-01T09:26:29;102779.03;;;20.48;41.07
73455;BME280;61690;51.824;6.306;2023-03-01T09:28:55;102780.63;;;20.52;41.19
73455;BME280;61690;51.824;6.306;2023-03-01T09:31:22;102775.34;;;20.52;41.01
73455;BME280;61690;51.824;6.306;2023-03-01T09:33:51;102780.63;;;20.52;41.35
73455;BME280;61690;51.824;6.306;2023-03-01T09:36:19;102784.97;;;20.53;41.44
73455;BME280;61690;51.824;6.306;2023-03-01T09:38:45;102776.31;;;20.49;41.42
73455;BME280;61690;51.824;6.306;2023-03-01T09:43:51;102772.81;;;20.49;42.07
73455;BME280;61690;51.824;6.306;2023-03-01T09:46:22;102775.75;;;20.43;42.25
73455;BME280;61690;51.824;6.306;2023-03-01T09:48:56;102776.88;;;20.37;42.17
73455;BME280;61690;51.824;6.306;2023-03-01T09:51:33;102769.38;;;20.26;42.35
73455;BME280;61690;51.824;6.306;2023-03-01T09:54:01;102757.22;;;20.22;42.61
73455;BME280;61690;51.824;6.306;2023-03-01T09:56:33;102767.69;;;20.25;42.46
73455;BME280;61690;51.824;6.306;2023-03-01T09:59:17;102756.91;;;20.30;42.56
73455;BME280;61690;51.824;6.306;2023-03-01T10:02:21;102754.88;;;20.36;42.50
73455;BME280;61690;51.824;6.306;2023-03-01T10:05:50;102751.66;;;20.28;42.99
73455;BME280;61690;51.824;6.306;2023-03-01T10:10:43;102745.53;;;20.28;43.01
73455;BME280;61690;51.824;6.306;2023-03-01T10:13:21;102739.34;;;20.29;43.22
73455;BME280;61690;51.824;6.306;2023-03-01T10:15:51;102729.56;;;20.31;43.22
73455;BME280;61690;51.824;6.306;2023-03-01T10:18:23;102726.81;;;20.32;43.05
73455;BME280;61690;51.824;6.306;2023-03-01T10:20:56;102726.97;;;20.29;43.44
73455;BME280;61690;51.824;6.306;2023-03-01T10:23:29;102718.00;;;20.33;43.28
73455;BME280;61690;51.824;6.306;2023-03-01T10:26:05;102718.19;;;20.29;43.13
73455;BME280;61690;51.824;6.306;2023-03-01T10:28:47;102716.59;;;20.25;43.49
73455;BME280;61690;51.824;6.306;2023-03-01T10:31:19;102717.59;;;20.22;43.75
73455;BME280;61690;51.824;6.306;2023-03-01T10:33:45;102705.78;;;20.10;43.34
73455;BME280;61690;51.824;6.306;2023-03-01T10:36:12;102708.59;;;20.26;43.73
73455;BME280;61690;51.824;6.306;2023-03-01T10:38:50;102699.09;;;20.22;43.73
73455;BME280;61690;51.824;6.306;2023-03-01T10:41:17;102697.97;;;20.28;43.56
73455;BME280;61690;51.824;6.306;2023-03-01T10:43:45;102688.88;;;20.14;44.06
73455;BME280;61690;51.824;6.306;2023-03-01T10:46:28;102694.88;;;20.18;44.00
73455;BME280;61690;51.824;6.306;2023-03-01T10:49:14;102699.31;;;20.17;44.33
73455;BME280;61690;51.824;6.306;2023-03-01T10:51:42;102697.38;;;20.21;44.24
73455;BME280;61690;51.824;6.306;2023-03-01T10:54:30;102694.09;;;20.16;43.96
73455;BME280;61690;51.824;6.306;2023-03-01T10:57:04;102694.28;;;20.11;44.07
73455;BME280;61690;51.824;6.306;2023-03-01T10:59:33;102685.09;;;20.20;44.34
73455;BME280;61690;51.824;6.306;2023-03-01T11:02:22;102694.41;;;20.08;44.17
73455;BME280;61690;51.824;6.306;2023-03-01T11:07:49;102696.72;;;19.95;43.36
73455;BME280;61690;51.824;6.306;2023-03-01T11:10:23;102693.28;;;19.93;43.58
73455;BME280;61690;51.824;6.306;2023-03-01T11:12:50;102700.88;;;20.01;43.28
73455;BME280;61690;51.824;6.306;2023-03-01T11:15:21;102707.28;;;19.95;43.22
73455;BME280;61690;51.824;6.306;2023-03-01T11:17:47;102699.31;;;19.97;43.44
73455;BME280;61690;51.824;6.306;2023-03-01T11:22:46;102708.34;;;19.91;43.40
73455;BME280;61690;51.824;6.306;2023-03-01T11:25:13;102690.72;;;19.92;43.34
73455;BME280;61690;51.824;6.306;2023-03-01T11:27:43;102687.31;;;19.46;40.40
73455;BME280;61690;51.824;6.306;2023-03-01T11:30:21;102680.47;;;19.19;40.00
73455;BME280;61690;51.824;6.306;2023-03-01T11:32:58;102686.69;;;19.17;39.98
73455;BME280;61690;51.824;6.306;2023-03-01T11:35:27;102695.59;;;19.14;40.20
73455;BME280;61690;51.824;6.306;2023-03-01T11:38:04;102688.69;;;19.34;39.86
73455;BME280;61690;51.824;6.306;2023-03-01T11:40:38;102686.31;;;19.48;40.18
73455;BME280;61690;51.824;6.306;2023-03-01T11:43:09;102689.22;;;19.64;40.39
73455;BME280;61690;51.824;6.306;2023-03-01T11:46:06;102688.72;;;19.76;40.07
73455;BME280;61690;51.824;6.306;2023-03-01T11:51:59;102667.16;;;19.87;40.39
73455;BME280;61690;51.824;6.306;2023-03-01T11:57:35;102654.06;;;20.05;40.57
73455;BME280;61690;51.824;6.306;2023-03-01T12:00:13;102647.81;;;20.26;40.67
73455;BME280;61690;51.824;6.306;2023-03-01T12:05:51;102648.50;;;20.11;39.80
73455;BME280;61690;51.824;6.306;2023-03-01T12:08:25;102645.63;;;20.36;39.53
73455;BME280;61690;51.824;6.306;2023-03-01T12:11:03;102636.78;;;20.56;39.99
73455;BME280;61690;51.824;6.306;2023-03-01T12:13:50;102633.97;;;20.61;39.97
73455;BME280;61690;51.824;6.306;2023-03-01T12:24:37;102634.03;;;20.78;40.66
73455;BME280;61690;51.824;6.306;2023-03-01T12:30:16;102632.38;;;20.75;40.82
73455;BME280;61690;51.824;6.306;2023-03-01T12:38:33;102623.69;;;20.73;40.49
73455;BME280;61690;51.824;6.306;2023-03-01T12:41:31;102626.16;;;20.76;39.66
73455;BME280;61690;51.824;6.306;2023-03-01T12:47:12;102618.44;;;20.91;39.58
73455;BME280;61690;51.824;6.306;2023-03-01T12:49:45;102616.53;;;20.17;36.95
73455;BME280;61690;51.824;6.306;2023-03-01T12:52:19;102616.03;;;19.68;36.89
73455;BME280;61690;51.824;6.306;2023-03-01T12:54:49;102605.94;;;20.17;38.43
73455;BME280;61690;51.824;6.306;2023-03-01T12:57:30;102603.28;;;20.56;38.12
73455;BME280;61690;51.824;6.306;2023-03-01T13:05:39;102598.44;;;20.85;38.51
73455;BME280;61690;51.824;6.306;2023-03-01T13:08:25;102583.94;;;20.75;38.62
73455;BME280;61690;51.824;6.306;2023-03-01T13:10:56;102587.72;;;20.69;38.73
73455;BME280;61690;51.824;6.306;2023-03-01T13:13:26;102570.31;;;20.65;38.18
73455;BME280;61690;51.824;6.306;2023-03-01T13:15:52;102572.41;;;20.57;38.52
73455;BME280;61690;51.824;6.306;2023-03-01T13:31:02;102549.13;;;20.27;38.96
73455;BME280;61690;51.824;6.306;2023-03-01T13:35:54;102552.97;;;20.20;39.45
73455;BME280;61690;51.824;6.306;2023-03-01T13:38:45;102546.25;;;20.13;39.46
73455;BME280;61690;51.824;6.306;2023-03-01T13:41:15;102537.25;;;20.17;39.90
73455;BME280;61690;51.824;6.306;2023-03-01T13:43:42;102532.91;;;20.16;39.80
73455;BME280;61690;51.824;6.306;2023-03-01T13:46:26;102517.06;;;20.16;39.76
73455;BME280;61690;51.824;6.306;2023-03-01T13:48:56;102511.28;;;20.08;39.83
73455;BME280;61690;51.824;6.306;2023-03-01T13:51:26;102515.59;;;19.90;39.90
73455;BME280;61690;51.824;6.306;2023-03-01T13:53:54;102507.38;;;19.77;40.37
73455;BME280;61690;51.824;6.306;2023-03-01T13:56:24;102507.47;;;19.75;40.07
73455;BME280;61690;51.824;6.306;2023-03-01T13:58:58;102505.88;;;19.71;40.13
73455;BME280;61690;51.824;6.306;2023-03-01T14:01:28;102497.22;;;19.68;40.36
73455;BME280;61690;51.824;6.306;2023-03-01T14:03:54;102498.47;;;19.59;40.27
73455;BME280;61690;51.824;6.306;2023-03-01T14:06:31;102502.28;;;19.52;40.13
73455;BME280;61690;51.824;6.306;2023-03-01T14:09:10;102495.38;;;19.49;40.03
73455;BME280;61690;51.824;6.306;2023-03-01T14:14:45;102486.63;;;19.49;39.83